Pt. Reyes RCA field Weather observations

Data are for 10 minute period ending at time listed.
 Day   Time   Solar   Ave.   Ave.  Ave.  Vector    Max.   Stn.   Total 
  of    of     Rad.   Air    Rel.  Wind   Wind     Wind   Baro. Precip.
Year   Day            Temp.  Hum.  Speed  Dir.     Gust   Pres.        
2016   (PST)   W/m2    F      %     mph   deg.      mph    mb.    in.  
-----------------------------------------------------------------------
 146    1:30    0.0    54   93.2     8    298.2    12.0   1013.9  0.00  
 146    1:40    0.0    54   93.4     6    293.4     8.9   1013.9  0.00  
 146    1:50    0.0    54   93.5     6    295.8     9.7   1013.9  0.00  
 146    2:00    0.0    54   93.7     6    294.8     8.0   1013.9  0.00  
 146    2:10    0.0    54   93.8     7    297.9     9.4   1013.9  0.00  
 146    2:20    0.0    54   93.9     8    297.9    10.8   1013.9  0.00  
 146    2:30  999.0   999  999.0   999    999.0   999.0    999.0 999.00  
 146    2:40  999.0   999  999.0   999    999.0   999.0    999.0 999.00  
 146    2:50  999.0   999  999.0   999    999.0   999.0    999.0 999.00  
 146    3:00  999.0   999  999.0   999    999.0   999.0    999.0 999.00  
 146    3:10  999.0   999  999.0   999    999.0   999.0    999.0 999.00  
 146    3:20  999.0   999  999.0   999    999.0   999.0    999.0 999.00  
 146    3:30    0.0    53   95.1     5    309.8     6.6   1013.9  0.00  
 146    3:40    0.0    53   95.3     5    313.7     7.2   1013.9  0.00  
 146    3:50    0.0    53   95.5     4    316.2     5.8   1014.2  0.00  
 146    4:00    0.0    53   95.7     4    309.0     5.5   1014.2  0.00  
 146    4:10    0.0    53   95.9     4    311.0     6.4   1014.2  0.00  
 146    4:20    0.0    53   96.0     4    302.8     5.8   1014.2  0.00  
 146    4:30    0.0    53   96.1     4    300.4     4.7   1014.2  0.00  
 146    4:40    0.0    53   96.2     4    296.3     7.0   1014.2  0.00  
 146    4:50    0.0    53   96.3     5    301.0     7.2   1014.6  0.00  
 146    5:00    0.0    53   96.3     5    289.1     6.9   1014.2  0.00  
 146    5:10    2.0    53   96.3     6    297.9     7.7   1014.2  0.00  
 146    5:20    6.0    53   96.3     5    296.8     7.1   1014.6  0.00  
 146    5:30    7.0    53   96.3     4    284.9     6.1   1014.6  0.00  
 146    5:40   11.0    53   96.3     5    277.9     8.3   1014.6  0.00  
 146    5:50   14.0    53   96.4     4    291.0     5.6   1014.6  0.00  
 146    6:00   24.0    53   96.3     3    286.9     4.2   1014.6  0.00  
 146    6:10   27.0    53   96.4     2    300.6     5.0   1014.6  0.00  
 146    6:20   36.0    53   96.4     4    277.4     5.4   1014.9  0.00  
 146    6:30   43.0    53   96.4     4    294.1     5.8   1014.9  0.00  
 146    6:40   47.0    53   96.4     1    338.0     3.1   1014.9  0.00  
 146    6:50   60.0    53   96.4     3    300.0     5.2   1014.9  0.00  
 146    7:00   60.0    53   96.4     4    312.8     6.2   1014.9  0.00  
 146    7:10   64.0    53   96.4     5    309.1     7.5   1015.2  0.00  
 146    7:20   71.0    53   96.5     5    311.4     8.0   1015.2  0.00  
 146    7:30   84.0    53   96.5     4    325.3     5.8   1015.6  0.00  
 146    7:40   91.0    53   96.6     4    332.6     5.9   1015.6  0.00  
 146    7:50  110.0    53   96.5     5    323.9     7.7   1015.6  0.00  
 146    8:00  123.0    53   96.4     4    342.1     7.2   1015.9  0.00  
 146    8:10  132.0    53   96.3     6    296.6     8.5   1015.9  0.00  
 146    8:20  138.0    53   96.3     4    309.2     6.4   1015.9  0.00  
 146    8:30  152.0    53   96.1     5    289.8     8.1   1015.9  0.00  
 146    8:40  177.0    53   96.1     5    293.3     8.1   1015.9  0.00  
 146    8:50  161.0    53   95.8     6    282.1     7.6   1016.3  0.00  
 146    9:00  178.0    53   95.8     7    289.1    10.5   1016.3  0.00  
 146    9:10  242.0    54   95.4     8    290.8    10.2   1016.3  0.00  
 146    9:20  300.0    54   94.6     8    298.9    10.9   1016.3  0.00  
 146    9:30  322.0    54   92.9     8    302.1    10.2   1016.3  0.00  
 146    9:40  325.0    54   92.5     5    312.3     7.7   1016.6  0.00  
 146    9:50  361.0    55   91.8     4    300.4     7.2   1016.6  0.00  
 146   10:00  477.0    56   90.7     5    309.1     8.2   1016.6  0.00  
 146   10:10  431.0    56   88.4     5    272.0     9.1   1016.6  0.00  
 146   10:20  491.0    57   87.1     6    277.6    10.3   1016.9  0.00  
 146   10:30  535.0    57   85.3     5    278.4     9.1   1016.9  0.00  
 146   10:40  488.0    57   84.3     6    270.1     9.5   1016.9  0.00  
 146   10:50  416.0    57   84.3     6    269.1     9.1   1016.9  0.00  
 146   11:00  461.0    57   85.4     7    251.2    10.4   1016.9  0.00  
 146   11:10  526.0    57   86.2     7    244.6    11.2   1016.9  0.00  
 146   11:20  536.0    57   86.2     8    252.4    12.9   1016.9  0.00  
 146   11:30  425.0    57   87.0     8    252.7    11.3   1016.9  0.00  
 146   11:40  490.0    57   87.5     8    269.7    12.0   1016.9  0.00  
 146   11:50  393.0    58   87.8     8    264.8    12.6   1016.9  0.00  
 146   12:00  438.0    57   88.1    10    273.9    12.9   1016.9  0.00  
 146   12:10  839.0    58   87.5    10    273.8    12.7   1016.6  0.00  
 146   12:20  735.0    58   85.2    10    290.3    15.2   1016.6  0.00  
 146   12:30  660.0    58   85.3     9    292.5    13.7   1016.6  0.00  
 146   12:40  854.0    58   86.1    10    270.8    12.9   1016.6  0.00  
 146   12:50  860.0    58   85.6    10    275.6    14.2   1016.6  0.00  
 146   13:00  720.0    59   84.5    10    276.3    14.7   1016.6  0.00  
 146   13:10  587.0    58   83.7    11    273.5    15.9   1016.6  0.00  
 146   13:20  519.0    59   84.6    11    280.7    15.3   1016.6  0.00  
 146   13:30  511.0    59   84.5    12    288.8    16.4   1016.6  0.00  
 146   13:40  477.0    59   83.8    11    288.0    15.3   1016.6  0.00  
 146   13:50  514.0    58   84.9    11    276.2    15.3   1016.6  0.00  
 146   14:00  568.0    59   84.6    11    274.4    14.5   1016.6  0.00  
 146   14:10  586.0    59   83.8    12    275.4    15.3   1016.6  0.00  
 146   14:20  591.0    59   83.4    12    281.5    14.2   1016.3  0.00  
 146   14:30  591.0    58   83.8    12    283.6    15.1   1016.3  0.00  
 146   14:40  591.0    58   84.0    13    281.4    17.5   1016.3  0.00  
 146   14:50  499.0    59   83.5    13    280.2    16.2   1016.3  0.00  
 146   15:00  432.0    58   83.7    11    278.8    15.6   1016.3  0.00  
 146   15:10  412.0    58   83.2    11    272.0    14.4   1016.3  0.00  
 146   15:20  379.0    58   83.7    10    275.0    15.0   1016.3  0.00  
 146   15:30  489.0    58   82.8    13    284.7    16.9   1015.9  0.00  
 146   15:40  435.0    58   83.0    12    284.1    15.3   1015.9  0.00  
 146   15:50  539.0    58   82.6    12    275.1    15.9   1015.9  0.00  
 146   16:00  542.0    58   81.7    14    280.7    18.5   1015.9  0.00  
 146   16:10  513.0    58   80.3    15    288.8    19.6   1015.9  0.00  
 146   16:20  484.0    58   79.8    15    285.7    19.3   1015.9  0.00  
 146   16:30  457.0    58   78.1    14    291.6    18.9   1015.9  0.00  
 146   16:40  427.0    59   76.6    15    299.5    19.1   1015.9  0.00  
 146   16:50  398.0    58   77.9    14    299.1    20.2   1015.9  0.00  
 146   17:00  369.0    58   78.8    17    299.9    23.1   1015.6  0.00  
 146   17:10  340.0    57   79.4    18    299.5    25.0   1015.6  0.00  
 146   17:20  311.0    58   79.0    17    302.6    25.0   1015.6  0.00  
 146   17:30  281.0    57   78.4    18    303.9    25.1   1015.2  0.00  
 146   17:40  252.0    57   79.2    19    304.6    26.1   1015.2  0.00  
 146   17:50  223.0    56   79.9    19    302.5    26.2   1015.2  0.00  
 146   18:00  194.0    56   80.9    18    304.3    26.2   1015.2  0.00  
 146   18:10  160.0    56   82.2    17    302.8    23.2   1015.6  0.00  
 146   18:20  137.0    56   83.5    16    303.2    22.6   1015.6  0.00  
 146   18:30  111.0    55   84.9    18    305.8    24.9   1015.6  0.00  
 146   18:40   85.0    55   86.8    18    307.8    27.6   1015.6  0.00  
 146   18:50   55.0    54   88.0    18    306.7    25.6   1015.6  0.00  
 146   19:00   33.0    54   89.0    18    304.2    24.6   1015.6  0.00  
 146   19:10   19.0    54   89.7    19    307.9    25.8   1015.6  0.00  
 146   19:20    9.0    54   90.3    18    310.9    25.9   1015.6  0.00  
 146   19:30    5.0    53   91.0    16    311.3    23.6   1015.9  0.00  
 146   19:40    0.0    53   91.3    15    313.7    20.7   1015.9  0.00  
 146   19:50    0.0    53   91.7    14    317.8    20.5   1015.9  0.00  
 146   20:00    0.0    53   91.9    13    314.6    18.5   1015.9  0.00  
 146   20:10    0.0    53   92.1    14    312.5    19.5   1015.9  0.00  
 146   20:20    0.0    53   92.4    16    307.8    23.2   1015.9  0.00  
 146   20:30    0.0    53   92.7    14    314.1    18.9   1016.3  0.00  
 146   20:40    0.0    53   92.6    16    312.1    20.6   1016.3  0.00  
 146   20:50    0.0    53   92.7    16    314.2    21.9   1016.3  0.00  
 146   21:00    0.0    53   92.8    15    312.2    21.7   1016.3  0.00  
 146   21:10    0.0    53   92.8    12    307.3    20.9   1016.3  0.00  
 146   21:20    0.0    53   93.0    14    305.4    20.0   1016.3  0.00  
 146   21:30    0.0    53   93.2    14    312.7    20.8   1016.3  0.00  
 146   21:40    0.0    53   93.3    14    309.1    18.9   1016.3  0.00  
 146   21:50    0.0    53   93.5    13    307.2    18.4   1016.3  0.00  
 146   22:00    0.0    52   93.6    11    304.3    17.8   1016.3  0.00  
 146   22:10    0.0    52   93.7    14    302.4    20.8   1015.9  0.00  
 146   22:20    0.0    52   93.8    16    305.4    21.8   1015.9  0.00  
 146   22:30    0.0    52   93.9    16    306.3    24.5   1015.9  0.00  
 146   22:40    0.0    52   94.0    16    305.4    22.1   1015.6  0.00  
 146   22:50    0.0    52   94.1    16    304.7    20.8   1015.6  0.00  
 146   23:00    0.0    52   94.3    14    303.6    17.4   1015.6  0.00  
 146   23:10    0.0    52   94.5    12    302.4    18.0   1015.6  0.00  
 146   23:20    0.0    52   94.6    13    301.8    16.8   1015.6  0.00  
 146   23:30    0.0    52   94.8    12    305.6    16.6   1015.6  0.00  
 146   23:40    0.0    52   95.0    12    306.0    17.1   1015.6  0.00  
 146   23:50    0.0    52   95.1    12    307.4    16.4   1015.6  0.00  
 147    0:00    0.0    52   95.3    14    300.7    17.4   1015.6  0.00  
 147    0:10    0.0    52   95.2    11    301.5    14.2   1015.6  0.00  
 147    0:20    0.0    52   95.4    10    307.5    15.1   1015.2  0.00  
 147    0:30    0.0    52   95.5     9    311.8    13.7   1015.2  0.00  
 147    0:40    0.0    52   95.5     9    306.1    11.0   1015.2  0.00  
 147    0:50    0.0    52   95.6     9    306.3    11.9   1015.2  0.00  
 147    1:00    0.0    52   95.5     8    309.6    12.4   1014.9  0.00  
 147    1:10    0.0    52   95.5     6    313.8     9.9   1014.9  0.00  
 147    1:20    0.0    52   95.6     6    318.1     9.1   1014.9  0.00  

Return to Pt. Reyes graphs page.


Western Regional Climate Center,wrcc@dri.edu